This is the latest recevied weather packets stored in our database for station/object EA4IAJ-12. If no packets are shown the sender has not sent any weather packets the latest 10 day(s).
| Time | Temp. | Humidity | Pressure | Rain* | Wind** | Luminosity | Snow |
|---|---|---|---|---|---|---|---|
| 1787847680 | 22.78° C | 100% | 1023.9 hPa | - | - | - | - |
| 1787846780 | 23.33° C | 100% | 1026.6 hPa | - | - | - | - |
| 1787845892 | 23.33° C | 100% | 1025.9 hPa | - | - | - | - |
| 1787844991 | 22.78° C | 100% | 1024 hPa | - | - | - | - |
| 1787844091 | 22.78° C | 100% | 1024.1 hPa | - | - | - | - |
| 1787843190 | 22.78° C | 100% | 1024.6 hPa | - | - | - | - |
| 1787842290 | 22.22° C | 100% | 1023 hPa | - | - | - | - |
| 1787841389 | 22.78° C | 100% | 1025 hPa | - | - | - | - |
| 1787840489 | 22.78° C | 100% | 1026.2 hPa | - | - | - | - |
| 1787839588 | 23.33° C | 100% | 1029.3 hPa | - | - | - | - |
| 1787838687 | 22.78° C | 100% | 1025.8 hPa | - | - | - | - |
| 1787837787 | 23.89° C | 100% | 1032.9 hPa | - | - | - | - |
| 1787836886 | 22.78° C | 100% | 1027.7 hPa | - | - | - | - |
| 1787835986 | 22.78° C | 100% | 1027.4 hPa | - | - | - | - |
| 1787835085 | 23.89° C | 100% | 1032.7 hPa | - | - | - | - |
| 1787834185 | 23.33° C | 100% | 1030.1 hPa | - | - | - | - |
| 1787833285 | 23.33° C | 100% | 1030.5 hPa | - | - | - | - |
| 1787832384 | 21.11° C | 100% | 1022 hPa | - | - | - | - |
| 1787831483 | 20.56° C | 100% | 1019.8 hPa | - | - | - | - |
| 1787830617 | 20° C | 100% | 1016.9 hPa | - | - | - | - |
| 1787830583 | 20° C | 100% | 1016.9 hPa | - | - | - | - |
| 1787829682 | 19.44° C | 100% | 1014.1 hPa | - | - | - | - |
| 1787828892 | 20.56° C | 100% | 1020.9 hPa | - | - | - | - |
| 1787828782 | 20.56° C | 100% | 1020.9 hPa | - | - | - | - |
| 1787827881 | 21.11° C | 100% | 1023.5 hPa | - | - | - | - |
* Rain since midnight (hover to see other rain measurements)
** Current wind speed in m/s (hover to see current wind gust speed)